createdAt,value
2018-02-09T00:00:01.164Z,124.55
2018-02-09T00:02:29.528Z,123.90
2018-02-09T00:04:57.144Z,128.23
2018-02-09T00:07:25.161Z,122.37
2018-02-09T00:09:55.072Z,142.82
2018-02-09T00:12:28.167Z,124.43
2018-02-09T00:14:55.965Z,132.07
2018-02-09T00:17:23.527Z,123.75
2018-02-09T00:19:51.130Z,117.17
2018-02-09T00:22:18.781Z,119.50
2018-02-09T00:24:46.718Z,137.70
2018-02-09T00:27:14.401Z,127.30
2018-02-09T00:29:41.939Z,120.97
2018-02-09T00:32:09.587Z,124.00
2018-02-09T00:34:37.148Z,119.20
2018-02-09T00:37:05.514Z,121.30
2018-02-09T00:39:33.143Z,113.28
2018-02-09T00:42:00.757Z,122.22
2018-02-09T00:44:28.373Z,123.20
2018-02-09T00:46:55.968Z,121.43
2018-02-09T00:49:23.645Z,112.30
2018-02-09T00:51:51.248Z,126.20
2018-02-09T00:54:18.827Z,124.57
2018-02-09T00:56:46.382Z,127.97
2018-02-09T00:59:13.992Z,144.15
2018-02-09T01:01:41.953Z,108.43
2018-02-09T01:04:09.922Z,123.17
2018-02-09T01:06:37.484Z,127.03
2018-02-09T01:09:05.480Z,115.07
2018-02-09T01:11:33.047Z,122.67
2018-02-09T01:14:00.663Z,126.30
2018-02-09T01:16:28.241Z,120.53
2018-02-09T01:18:55.820Z,122.07
2018-02-09T01:21:23.401Z,121.30
2018-02-09T01:23:51.058Z,127.97
2018-02-09T01:26:18.644Z,111.53
2018-02-09T01:28:46.272Z,111.80
2018-02-09T01:31:13.871Z,118.53
2018-02-09T01:33:41.471Z,108.80
2018-02-09T01:36:09.431Z,108.73
2018-02-09T01:38:37.951Z,109.63
2018-02-09T01:41:05.504Z,106.97
2018-02-09T01:43:33.076Z,111.03
2018-02-09T01:46:00.660Z,128.02
2018-02-09T01:48:28.242Z,103.93
2018-02-09T01:50:56.280Z,128.93
2018-02-09T01:53:23.831Z,128.07
2018-02-09T01:55:51.428Z,114.60
2018-02-09T01:58:19.012Z,119.03
2018-02-09T02:00:47.026Z,113.22
2018-02-09T02:03:14.610Z,113.73
2018-02-09T02:05:42.300Z,103.40
2018-02-09T02:08:10.252Z,114.93
2018-02-09T02:10:37.852Z,105.93
2018-02-09T02:13:05.420Z,109.77
2018-02-09T02:15:33.078Z,96.37
2018-02-09T02:18:00.624Z,106.47
2018-02-09T02:20:28.216Z,110.23
2018-02-09T02:22:55.779Z,102.62
2018-02-09T02:25:23.353Z,118.50
2018-02-09T02:27:50.916Z,117.37
2018-02-09T02:30:18.508Z,104.77
2018-02-09T02:32:46.625Z,109.53
2018-02-09T02:35:14.193Z,121.20
2018-02-09T02:37:41.785Z,117.47
2018-02-09T02:40:09.397Z,120.70
2018-02-09T02:42:36.985Z,112.30
2018-02-09T02:45:04.559Z,116.22
2018-02-09T02:47:32.181Z,115.03
2018-02-09T02:49:59.796Z,116.13
2018-02-09T02:52:27.393Z,118.67
2018-02-09T02:54:54.977Z,118.45
2018-02-09T02:57:22.957Z,102.03
2018-02-09T02:59:50.513Z,112.50
2018-02-09T03:02:18.071Z,121.53
2018-02-09T03:04:45.665Z,110.97
2018-02-09T03:07:13.628Z,102.40
2018-02-09T03:09:41.213Z,110.87
2018-02-09T03:12:09.190Z,113.07
2018-02-09T03:14:37.146Z,104.95
2018-02-09T03:17:05.969Z,111.70
2018-02-09T03:19:33.564Z,119.07
2018-02-09T03:22:01.715Z,121.10
2018-02-09T03:24:29.294Z,110.70
2018-02-09T03:26:56.849Z,107.40
2018-02-09T03:29:24.476Z,121.30
2018-02-09T03:31:52.050Z,111.70
2018-02-09T03:34:19.646Z,127.57
2018-02-09T03:36:47.209Z,112.20
2018-02-09T03:39:14.770Z,107.47
2018-02-09T03:41:42.321Z,102.07
2018-02-09T03:44:09.892Z,119.68
2018-02-09T03:46:37.500Z,119.53
2018-02-09T03:49:05.109Z,114.00
2018-02-09T03:51:32.710Z,111.85
2018-02-09T03:54:00.296Z,110.37
2018-02-09T03:56:27.891Z,114.40
2018-02-09T03:58:55.464Z,108.78
2018-02-09T04:01:23.444Z,110.90
2018-02-09T04:03:51.054Z,108.23
2018-02-09T04:06:18.636Z,106.78
2018-02-09T04:08:46.831Z,108.65
2018-02-09T04:11:14.824Z,118.63
2018-02-09T04:13:42.423Z,181.57
2018-02-09T04:16:10.009Z,123.83
2018-02-09T04:18:37.616Z,122.03
2018-02-09T04:21:05.192Z,154.98
2018-02-09T04:23:32.752Z,124.40
2018-02-09T04:26:00.379Z,186.07
2018-02-09T04:28:27.942Z,157.23
2018-02-09T04:30:55.525Z,147.27
2018-02-09T04:33:23.085Z,156.33
2018-02-09T04:35:50.696Z,168.93
2018-02-09T04:38:18.652Z,133.27
2018-02-09T04:40:47.070Z,185.97
2018-02-09T04:43:14.625Z,149.50
2018-02-09T04:45:43.094Z,139.07
2018-02-09T04:48:10.729Z,112.72
2018-02-09T04:50:38.285Z,130.37
2018-02-09T04:53:05.893Z,121.35
2018-02-09T04:55:33.474Z,138.33
2018-02-09T04:58:01.046Z,110.70
2018-02-09T05:00:28.661Z,152.80
2018-02-09T05:02:56.656Z,127.32
2018-02-09T05:05:24.283Z,128.23
2018-02-09T05:07:52.261Z,124.15
2018-02-09T05:10:19.833Z,114.07
2018-02-09T05:12:47.527Z,128.60
2018-02-09T05:15:15.089Z,112.43
2018-02-09T05:17:42.685Z,126.47
2018-02-09T05:20:10.286Z,120.27
2018-02-09T05:22:37.871Z,115.67
2018-02-09T05:25:07.687Z,126.60
2018-02-09T05:27:35.381Z,106.73
2018-02-09T05:30:03.178Z,113.33
2018-02-09T05:32:30.753Z,128.02
2018-02-09T05:34:58.371Z,128.25
2018-02-09T05:37:26.760Z,128.00
2018-02-09T05:39:54.368Z,125.12
2018-02-09T05:42:21.972Z,115.12
2018-02-09T05:44:49.575Z,109.57
2018-02-09T05:47:19.390Z,124.20
2018-02-09T05:49:47.104Z,124.27
2018-02-09T05:52:14.891Z,106.72
2018-02-09T05:54:42.855Z,119.70
2018-02-09T05:57:12.973Z,115.55
2018-02-09T05:59:40.541Z,114.90
2018-02-09T06:02:08.124Z,133.83
2018-02-09T06:04:35.736Z,109.23
2018-02-09T06:07:04.918Z,123.22
2018-02-09T06:09:32.502Z,111.50
2018-02-09T06:12:00.511Z,98.53
2018-02-09T06:14:28.137Z,118.00
2018-02-09T06:16:55.771Z,116.50
2018-02-09T06:19:23.393Z,107.67
2018-02-09T06:21:50.985Z,124.20
2018-02-09T06:24:18.606Z,101.83
2018-02-09T06:26:46.179Z,115.30
2018-02-09T06:29:13.754Z,111.88
2018-02-09T06:31:41.699Z,105.35
2018-02-09T06:34:09.331Z,102.90
2018-02-09T06:36:37.304Z,102.53
2018-02-09T06:39:05.265Z,106.22
2018-02-09T06:41:33.236Z,105.07
2018-02-09T06:44:01.196Z,108.30
2018-02-09T06:46:28.773Z,111.23
2018-02-09T06:48:56.362Z,103.17
2018-02-09T06:51:23.921Z,107.17
2018-02-09T06:53:51.513Z,117.37
2018-02-09T06:56:19.073Z,114.00
2018-02-09T06:58:46.687Z,112.53
2018-02-09T07:01:14.272Z,106.97
2018-02-09T07:03:41.885Z,97.12
2018-02-09T07:06:09.849Z,113.90
2018-02-09T07:08:37.840Z,116.13
2018-02-09T07:11:05.433Z,110.47
2018-02-09T07:13:33.024Z,114.77
2018-02-09T07:16:00.658Z,126.50
2018-02-09T07:18:28.213Z,107.87
2018-02-09T07:20:55.815Z,119.97
2018-02-09T07:23:23.784Z,116.93
2018-02-09T07:25:51.857Z,121.53
2018-02-09T07:28:19.921Z,105.53
2018-02-09T07:30:47.537Z,108.47
2018-02-09T07:33:15.141Z,123.30
2018-02-09T07:35:42.852Z,110.20
2018-02-09T07:38:10.457Z,116.87
2018-02-09T07:40:38.071Z,118.60
2018-02-09T07:43:05.640Z,113.17
2018-02-09T07:45:33.324Z,108.27
2018-02-09T07:48:00.916Z,108.57
2018-02-09T07:50:28.503Z,116.68
2018-02-09T08:30:26.978Z,80.10
2018-02-09T08:32:56.002Z,74.72
2018-02-09T08:35:24.905Z,80.13
2018-02-09T08:37:53.847Z,84.50
2018-02-09T08:40:22.788Z,79.40
2018-02-09T08:42:52.451Z,157.23
2018-02-09T08:45:21.324Z,172.53
2018-02-09T08:47:50.280Z,92.63
2018-02-09T08:50:19.200Z,99.62
2018-02-09T08:52:48.132Z,95.38
2018-02-09T08:55:17.069Z,97.77
2018-02-09T08:57:45.985Z,102.78
2018-02-09T09:00:14.895Z,101.50
2018-02-09T09:02:43.865Z,101.50
2018-02-09T09:05:12.781Z,92.80
2018-02-09T09:07:41.739Z,108.30
2018-02-09T09:10:10.844Z,102.47
2018-02-09T09:12:39.835Z,100.00
2018-02-09T09:15:08.797Z,100.20
2018-02-09T09:17:37.762Z,102.27
2018-02-09T09:20:06.760Z,100.90
2018-02-09T09:22:35.665Z,104.77
2018-02-09T09:25:04.542Z,165.27
2018-02-09T09:27:33.520Z,167.43
2018-02-09T09:30:02.413Z,110.87
2018-02-09T09:32:31.348Z,92.63
2018-02-09T09:35:00.256Z,107.97
2018-02-09T09:37:29.169Z,109.95
2018-02-09T09:39:58.100Z,112.80
2018-02-09T09:42:27.043Z,111.90
2018-02-09T09:44:55.967Z,95.35
2018-02-09T09:47:24.930Z,103.40
2018-02-09T09:49:53.948Z,120.30
2018-02-09T09:52:22.904Z,121.20
2018-02-09T09:54:51.857Z,108.47
2018-02-09T09:57:20.749Z,105.53
2018-02-09T09:59:49.668Z,101.90
2018-02-09T10:02:24.430Z,126.53
2018-02-09T10:04:53.415Z,113.50
2018-02-09T10:07:22.325Z,114.30
2018-02-09T10:09:51.199Z,127.90
2018-02-09T10:12:20.115Z,98.85
2018-02-09T10:14:49.107Z,121.53
2018-02-09T10:17:18.028Z,115.15
2018-02-09T10:19:46.940Z,123.28
2018-02-09T10:22:15.929Z,114.33
2018-02-09T10:24:44.892Z,120.33
2018-02-09T10:27:13.824Z,125.00
2018-02-09T10:29:42.752Z,110.90
2018-02-09T10:32:11.762Z,128.43
2018-02-09T10:34:40.709Z,123.33
2018-02-09T10:37:09.624Z,120.10
2018-02-09T10:39:38.545Z,123.73
2018-02-09T10:42:07.483Z,129.63
2018-02-09T10:44:36.522Z,132.77
2018-02-09T10:47:06.098Z,123.77
2018-02-09T10:49:35.078Z,114.72
2018-02-09T10:52:03.961Z,112.10
2018-02-09T10:54:32.859Z,117.57
2018-02-09T10:57:01.778Z,129.53
2018-02-09T10:59:30.764Z,128.93
2018-02-09T11:02:00.393Z,110.97
2018-02-09T11:04:29.292Z,116.67
2018-02-09T11:06:58.206Z,109.00
2018-02-09T11:09:31.301Z,108.45
2018-02-09T11:12:02.120Z,116.53
2018-02-09T11:14:31.001Z,110.70
2018-02-09T11:16:59.893Z,104.53
2018-02-09T11:19:28.817Z,108.33
2018-02-09T11:21:58.467Z,106.97
2018-02-09T11:24:27.388Z,106.53
2018-02-09T11:26:56.297Z,108.07
2018-02-09T11:29:25.224Z,111.57
2018-02-09T11:31:54.952Z,95.47
2018-02-09T11:34:23.892Z,107.33
2018-02-09T11:48:14.434Z,105.23
2018-02-09T11:50:43.356Z,112.60
2018-02-09T11:53:12.385Z,103.67
2018-02-09T11:55:41.291Z,103.00
2018-02-09T11:58:10.292Z,98.57
2018-02-09T12:00:39.281Z,102.18
2018-02-09T12:03:15.999Z,104.28
2018-02-09T12:12:08.132Z,103.60
2018-02-09T12:14:37.057Z,97.70
2018-02-09T12:17:08.112Z,117.60
2018-02-09T12:19:37.099Z,102.18
2018-02-09T12:22:06.041Z,105.60
2018-02-09T12:24:34.975Z,116.62
2018-02-09T12:27:03.984Z,108.80
2018-02-09T12:29:40.767Z,101.97
2018-02-09T12:32:09.764Z,98.80
2018-02-09T12:34:38.734Z,106.80
2018-02-09T12:37:08.103Z,103.62
2018-02-09T12:39:37.015Z,99.40
2018-02-09T12:42:06.000Z,95.83
2018-02-09T12:44:34.888Z,89.60
2018-02-09T12:47:03.877Z,90.00
2018-02-09T12:49:32.911Z,84.30
2018-02-09T12:52:01.861Z,83.83
2018-02-09T12:54:30.809Z,87.27
2018-02-09T12:56:59.835Z,85.43
2018-02-09T12:59:28.820Z,86.30
2018-02-09T13:01:57.820Z,76.03
2018-02-09T13:04:26.755Z,70.33
2018-02-09T13:06:55.727Z,75.57
2018-02-09T13:09:24.688Z,68.43
2018-02-09T13:11:53.585Z,74.67
2018-02-09T13:14:28.303Z,72.47
2018-02-09T13:16:57.214Z,95.90
2018-02-09T13:19:26.160Z,76.43
2018-02-09T13:21:55.159Z,87.93
2018-02-09T13:24:24.226Z,77.10
2018-02-09T13:26:53.112Z,81.00
2018-02-09T13:29:22.051Z,77.85
2018-02-09T13:31:51.013Z,77.87
2018-02-09T13:34:19.964Z,91.50
2018-02-09T13:37:03.793Z,82.00
2018-02-09T13:39:32.730Z,71.33
2018-02-09T13:42:01.657Z,66.30
2018-02-09T13:44:30.564Z,73.93
2018-02-09T13:46:59.466Z,78.83
2018-02-09T13:49:28.355Z,76.60
2018-02-09T13:51:57.257Z,84.10
2018-02-09T13:54:26.180Z,74.05
2018-02-09T13:56:55.869Z,78.50
2018-02-09T13:59:24.770Z,76.73
2018-02-09T14:01:53.647Z,84.47
2018-02-09T14:04:22.563Z,96.77
2018-02-09T14:06:51.480Z,84.73
2018-02-09T14:09:20.438Z,75.87
2018-02-09T14:11:49.345Z,81.37
2018-02-09T14:14:18.273Z,97.50
2018-02-09T14:16:47.190Z,96.50
2018-02-09T14:19:16.195Z,78.25
2018-02-09T14:21:45.073Z,76.32
2018-02-09T14:24:14.124Z,90.97
2018-02-09T14:26:43.056Z,71.57
2018-02-09T14:29:11.964Z,84.23
2018-02-09T14:31:40.844Z,79.33
2018-02-09T14:34:09.802Z,84.00
2018-02-09T14:36:38.712Z,83.93
2018-02-09T14:39:07.661Z,89.47
2018-02-09T14:41:36.609Z,87.40
2018-02-09T14:44:05.546Z,83.10
2018-02-09T14:46:34.450Z,88.83
2018-02-09T14:49:03.413Z,91.77
2018-02-09T14:51:32.416Z,82.73
2018-02-09T14:54:01.422Z,94.63
2018-02-09T14:56:30.292Z,86.53
2018-02-09T14:58:59.213Z,91.35
2018-02-09T15:01:28.117Z,98.73
2018-02-09T15:03:57.049Z,90.30
2018-02-09T15:06:25.943Z,89.43
2018-02-09T15:08:54.873Z,83.83
2018-02-09T15:11:23.802Z,92.80
2018-02-09T15:13:52.700Z,102.00
2018-02-09T15:16:21.632Z,92.80
2018-02-09T15:18:50.577Z,95.63
2018-02-09T15:21:19.491Z,90.70
2018-02-09T15:23:50.225Z,90.30
2018-02-09T15:26:19.556Z,117.97
2018-02-09T15:28:49.967Z,92.23
2018-02-09T15:31:18.872Z,114.67
2018-02-09T15:33:47.776Z,99.23
2018-02-09T15:36:16.653Z,92.97
2018-02-09T15:38:46.296Z,95.00
2018-02-09T15:41:15.241Z,92.87
2018-02-09T15:43:44.184Z,93.27
2018-02-09T15:46:13.076Z,89.60
2018-02-09T15:48:42.028Z,92.65
2018-02-09T15:51:11.218Z,106.27
2018-02-09T15:53:40.182Z,93.62
2018-02-09T15:56:09.132Z,91.63
2018-02-09T15:58:38.075Z,93.95
2018-02-09T16:01:06.998Z,79.97
2018-02-09T16:03:35.941Z,82.47
2018-02-09T16:06:05.061Z,90.40
2018-02-09T16:08:34.037Z,85.17
2018-02-09T16:11:02.929Z,84.30
2018-02-09T16:13:31.883Z,89.23
2018-02-09T16:16:00.753Z,95.07
2018-02-09T16:18:29.612Z,79.23
2018-02-09T16:20:58.587Z,78.57
2018-02-09T16:23:27.448Z,77.93
2018-02-09T16:25:56.415Z,78.30
2018-02-09T16:28:25.286Z,94.70
2018-02-09T16:30:54.195Z,76.30
2018-02-09T16:33:23.096Z,89.00
2018-02-09T16:35:51.993Z,85.03
2018-02-09T16:38:20.936Z,86.63
2018-02-09T18:01:00.671Z,91.15
2018-02-09T18:03:30.164Z,78.83
2018-02-09T18:05:59.143Z,85.62
2018-02-09T18:08:28.755Z,83.57
2018-02-09T18:10:59.623Z,82.03
2018-02-09T18:13:28.617Z,73.47
2018-02-09T18:15:59.613Z,82.33
2018-02-09T18:18:28.735Z,70.60
2018-02-09T18:23:33.613Z,74.70
2018-02-09T18:26:03.621Z,82.33
2018-02-09T18:28:32.602Z,86.30
2018-02-09T18:31:01.501Z,76.80
2018-02-09T18:33:30.422Z,76.80
2018-02-09T18:35:59.341Z,78.47
2018-02-09T18:38:28.286Z,98.60
2018-02-09T18:40:57.916Z,82.23
2018-02-09T18:43:26.832Z,80.87
2018-02-09T18:45:55.748Z,86.60
2018-02-09T18:48:24.641Z,71.50
2018-02-09T18:50:54.292Z,67.43
2018-02-09T18:53:23.181Z,84.80
2018-02-09T18:55:52.128Z,84.40
2018-02-09T18:58:21.018Z,77.37
2018-02-09T19:00:49.989Z,80.47
2018-02-09T19:03:18.880Z,82.17
2018-02-09T19:05:47.785Z,98.73
2018-02-09T19:08:16.959Z,86.30
2018-02-09T19:10:45.898Z,75.43
2018-02-09T19:13:14.802Z,82.73
2018-02-09T19:15:43.712Z,81.67
2018-02-09T19:18:13.369Z,81.67
2018-02-09T19:20:42.276Z,84.53
2018-02-09T19:23:11.167Z,102.82
2018-02-09T19:25:40.083Z,80.90
2018-02-09T19:28:09.023Z,85.50
2018-02-09T19:30:37.949Z,88.17
2018-02-09T19:33:06.813Z,94.63
2018-02-09T19:35:35.783Z,76.50
2018-02-09T19:38:04.685Z,78.07
2018-02-09T19:40:33.593Z,72.80
2018-02-09T19:43:02.483Z,75.97
2018-02-09T19:45:32.178Z,72.72
2018-02-09T19:48:01.122Z,80.93
2018-02-09T19:50:30.098Z,75.32
2018-02-09T19:52:59.031Z,85.80
2018-02-09T19:55:27.946Z,82.87
2018-02-09T19:57:56.967Z,84.83
2018-02-09T20:00:27.442Z,90.70
2018-02-09T20:02:56.695Z,85.17
2018-02-09T20:05:27.144Z,90.17
2018-02-09T20:07:57.004Z,97.62
2018-02-09T20:10:27.395Z,84.37
2018-02-09T20:12:57.435Z,66.93
2018-02-09T20:15:28.132Z,83.17
2018-02-09T20:17:57.415Z,86.68
2018-02-09T20:20:26.817Z,85.37
2018-02-09T20:22:56.474Z,81.53
2018-02-09T20:25:27.076Z,89.18
2018-02-09T20:27:56.094Z,95.62
2018-02-09T20:30:25.038Z,85.20
2018-02-09T20:32:54.006Z,90.13
2018-02-09T20:35:23.025Z,82.80
2018-02-09T20:37:52.211Z,86.05
2018-02-09T20:40:21.913Z,85.28
2018-02-09T20:42:51.222Z,78.57
2018-02-09T20:45:24.218Z,91.13
2018-02-09T20:47:56.183Z,86.13
2018-02-09T20:50:25.108Z,88.15
2018-02-09T20:52:54.032Z,78.47
2018-02-09T20:55:23.063Z,85.47
2018-02-09T20:57:52.184Z,69.62
2018-02-09T21:00:21.189Z,80.07
2018-02-09T21:06:03.745Z,86.27
2018-02-09T21:11:20.547Z,72.03
2018-02-09T21:20:05.644Z,57.53
2018-02-09T21:22:33.269Z,64.03
2018-02-09T21:25:01.252Z,59.38
2018-02-09T21:27:28.801Z,66.37
2018-02-09T21:29:56.405Z,63.63
2018-02-09T21:32:24.094Z,63.97
2018-02-09T21:34:51.788Z,72.50
2018-02-09T21:37:19.361Z,63.80
2018-02-09T21:39:46.936Z,78.80
2018-02-09T21:42:14.509Z,74.85
2018-02-09T21:44:42.902Z,71.53
2018-02-09T21:47:10.474Z,82.10
2018-02-09T21:49:38.082Z,83.90
2018-02-09T21:52:06.178Z,69.27
2018-02-09T21:54:33.790Z,81.13
2018-02-09T21:57:01.861Z,93.87
2018-02-09T22:02:20.439Z,77.87
2018-02-09T22:04:48.286Z,69.22
2018-02-09T22:07:16.649Z,71.12
2018-02-09T22:09:51.161Z,81.23
2018-02-09T22:12:20.102Z,70.45
2018-02-09T22:14:47.914Z,71.15
2018-02-09T22:17:16.050Z,74.50
2018-02-09T22:19:43.779Z,76.03
2018-02-09T22:22:11.473Z,79.72
2018-02-09T22:24:45.283Z,77.30
2018-02-09T22:27:17.249Z,78.45
2018-02-09T22:29:46.120Z,78.37
2018-02-09T22:32:15.106Z,64.50
2018-02-09T22:34:42.852Z,73.80
2018-02-09T22:37:13.773Z,81.53
2018-02-09T22:39:41.573Z,87.50
2018-02-09T22:42:09.659Z,82.18
2018-02-09T22:44:37.262Z,74.63
2018-02-09T22:47:06.514Z,85.27
2018-02-09T22:49:34.441Z,81.93
2018-02-09T22:52:02.819Z,84.17
2018-02-09T22:54:31.012Z,81.90
2018-02-09T22:57:01.677Z,77.13
2018-02-09T22:59:30.147Z,85.73
2018-02-09T23:01:58.144Z,85.47
2018-02-09T23:04:33.478Z,87.23
2018-02-09T23:07:04.132Z,91.63
2018-02-09T23:09:35.011Z,87.30
2018-02-09T23:12:12.271Z,84.85
2018-02-09T23:14:44.852Z,81.78
2018-02-09T23:17:30.450Z,79.83
2018-02-09T23:20:07.555Z,91.70
2018-02-09T23:22:47.279Z,81.13
2018-02-09T23:25:23.097Z,74.12
2018-02-09T23:27:50.987Z,83.40
2018-02-09T23:30:19.394Z,87.50
2018-02-09T23:32:47.099Z,79.43
2018-02-09T23:35:15.418Z,74.37
2018-02-09T23:37:43.175Z,87.37
2018-02-09T23:40:10.862Z,87.78
2018-02-09T23:42:39.045Z,87.17
2018-02-09T23:45:06.827Z,79.33
2018-02-09T23:47:34.599Z,76.90
2018-02-09T23:50:03.281Z,84.73
2018-02-09T23:52:31.865Z,88.55
2018-02-09T23:54:59.605Z,86.95
2018-02-09T23:57:27.303Z,88.47
2018-02-09T23:59:55.048Z,81.22
